Terminal Aerodrome Forecast
Issued by NWS Missoula, MT

Home | Current Version | Previous Version | Text Only | Print | Product List | Glossary On
Versions: 1 2 3 4 5 6 7 8 9 10 11 12 13 14 15 16 17 18 19 20 21 22 23
000
FTUS45 KMSO 302101 AAD
TAFGPI
TAF AMD
KGPI 302101Z 3021/3118 VRB10G20KT 5SM -TSRA BKN060CB
     FM302120 VRB06KT P6SM -SHRA VCTS SCT060CB BKN080
     FM310400 18010KT P6SM VCSH OVC060
     FM310800 VRB04KT P6SM BKN100=

USA.gov is the U.S. government's official web portal to all federal, state and local government web resources and services.